Aérodrome :
LOGIN :

S'inscrire | Disclaimer

   EN    FR    IT 

 










Légende :    VFR   VFR Marginal   IFR   IFR Intensif   IFR Très Intensif
Visi : 
Plafond : 
>= 8 km
>= 3000ft
5 à 8 km
1000 à 3000 ft
1500m à 5 km
500 à 1000 ft
800 à 1500m
200 à 500 ft
< 800m
< 200 ft
Symboles :   Orages  Brouillard  Fortes neiges  Fortes précipitations  Vent > 20 kt
SIGMETs :   Divers  Orages  Givrage  Turbulence  Onde Orograph.  Cendres Volcan.






- Altitude de l'aérodrome : 433 ft


LFOC - Chateaudun

DERNIER METAR :
  • 291300Z AUTO 05015KT CAVOK 24/03 Q1022 NOSIG

METARs EXPIRÉS :
  • 291230Z AUTO 06014KT CAVOK 23/04 Q1022 NOSIG
  • 291200Z AUTO 04013KT 010V070 CAVOK 23/05 Q1023 NOSIG
  • 291130Z AUTO 06013KT 030V090 CAVOK 23/06 Q1023 NOSIG
  • 291100Z AUTO 05013KT 020V080 CAVOK 22/03 Q1023 NOSIG
  • 291030Z AUTO 06015KT CAVOK 22/04 Q1023 NOSIG

TAF TAF LFOC
Valide du 29 à 09h jusqu'au 30 à 09h UTC


290800Z 2909/3009 06012KT CAVOK



MET'MAP, la Météo Aéronautique d'un coup d'oeil ! - Copyright ORBIFLY Décembre 2007 - Disclaimer

ORBIFLY MET'MAP TEAM :

Programmation & Développement : Alexandra Zaïnal
Sur une idée originale de : Baudouin d'Aumeries
Assistance à la programmation : Marc-Olivier Méhu
Soutien technique & logistique : Manuel Goepfert

Contact : metmap@orbifly.com




SOURCES & CREDITS :

   NOAA